sensor_id;sensor_type;location;lat;lon;timestamp;pressure;altitude;pressure_sealevel;temperature;humidity
75933;BME280;64803;52.356;5.310;2022-12-26T00:01:51;101320.09;;;8.92;100.00
75933;BME280;64803;52.356;5.310;2022-12-26T00:04:18;101312.59;;;8.95;100.00
75933;BME280;64803;52.356;5.310;2022-12-26T00:06:44;101312.06;;;8.92;100.00
75933;BME280;64803;52.356;5.310;2022-12-26T00:09:10;101320.25;;;8.90;100.00
75933;BME280;64803;52.356;5.310;2022-12-26T00:11:36;101324.06;;;8.88;100.00
75933;BME280;64803;52.356;5.310;2022-12-26T00:14:11;101323.09;;;8.89;100.00
75933;BME280;64803;52.356;5.310;2022-12-26T00:16:43;101318.53;;;8.89;100.00
75933;BME280;64803;52.356;5.310;2022-12-26T00:19:09;101319.06;;;8.93;100.00
75933;BME280;64803;52.356;5.310;2022-12-26T00:21:35;101328.13;;;8.92;100.00
75933;BME280;64803;52.356;5.310;2022-12-26T00:24:02;101320.94;;;8.92;100.00
75933;BME280;64803;52.356;5.310;2022-12-26T00:26:30;101318.09;;;8.94;100.00
75933;BME280;64803;52.356;5.310;2022-12-26T00:28:57;101323.13;;;8.97;100.00
75933;BME280;64803;52.356;5.310;2022-12-26T00:31:28;101324.44;;;8.93;100.00
75933;BME280;64803;52.356;5.310;2022-12-26T00:33:55;101331.00;;;8.98;100.00
75933;BME280;64803;52.356;5.310;2022-12-26T00:36:24;101341.56;;;9.00;100.00
75933;BME280;64803;52.356;5.310;2022-12-26T00:38:51;101336.38;;;8.98;100.00
75933;BME280;64803;52.356;5.310;2022-12-26T00:41:18;101340.75;;;8.99;100.00
75933;BME280;64803;52.356;5.310;2022-12-26T00:43:44;101334.84;;;8.96;100.00
75933;BME280;64803;52.356;5.310;2022-12-26T00:46:11;101348.63;;;9.01;100.00
75933;BME280;64803;52.356;5.310;2022-12-26T00:48:37;101352.97;;;9.02;100.00
75933;BME280;64803;52.356;5.310;2022-12-26T00:51:03;101350.28;;;9.02;100.00
75933;BME280;64803;52.356;5.310;2022-12-26T00:53:30;101349.44;;;9.01;100.00
75933;BME280;64803;52.356;5.310;2022-12-26T00:55:56;101348.31;;;9.04;100.00
75933;BME280;64803;52.356;5.310;2022-12-26T00:58:22;101339.56;;;9.02;100.00
75933;BME280;64803;52.356;5.310;2022-12-26T01:00:49;101343.94;;;9.03;100.00
75933;BME280;64803;52.356;5.310;2022-12-26T01:03:15;101342.91;;;8.96;100.00
75933;BME280;64803;52.356;5.310;2022-12-26T01:05:47;101339.91;;;8.99;100.00
75933;BME280;64803;52.356;5.310;2022-12-26T01:08:15;101346.09;;;8.99;100.00
75933;BME280;64803;52.356;5.310;2022-12-26T01:10:42;101342.56;;;8.99;100.00
75933;BME280;64803;52.356;5.310;2022-12-26T01:13:08;101352.28;;;9.00;100.00
75933;BME280;64803;52.356;5.310;2022-12-26T01:15:35;101351.59;;;8.98;100.00
75933;BME280;64803;52.356;5.310;2022-12-26T01:18:01;101349.22;;;8.95;100.00
75933;BME280;64803;52.356;5.310;2022-12-26T01:20:27;101346.22;;;8.98;100.00
75933;BME280;64803;52.356;5.310;2022-12-26T01:22:54;101346.56;;;8.95;100.00
75933;BME280;64803;52.356;5.310;2022-12-26T01:25:20;101341.88;;;8.97;100.00
75933;BME280;64803;52.356;5.310;2022-12-26T01:27:47;101330.47;;;8.95;100.00
75933;BME280;64803;52.356;5.310;2022-12-26T01:30:13;101336.84;;;8.94;100.00
75933;BME280;64803;52.356;5.310;2022-12-26T01:32:39;101341.34;;;8.93;100.00
75933;BME280;64803;52.356;5.310;2022-12-26T01:35:05;101317.19;;;8.85;100.00
75933;BME280;64803;52.356;5.310;2022-12-26T01:37:31;101338.50;;;8.95;100.00
75933;BME280;64803;52.356;5.310;2022-12-26T01:39:57;101331.16;;;8.97;100.00
75933;BME280;64803;52.356;5.310;2022-12-26T01:42:24;101338.84;;;8.92;100.00
75933;BME280;64803;52.356;5.310;2022-12-26T01:47:27;101342.81;;;8.88;100.00
75933;BME280;64803;52.356;5.310;2022-12-26T01:49:55;101321.72;;;8.67;100.00
75933;BME280;64803;52.356;5.310;2022-12-26T01:52:31;101256.00;;;8.30;100.00
75933;BME280;64803;52.356;5.310;2022-12-26T01:54:58;101354.91;;;8.92;100.00
75933;BME280;64803;52.356;5.310;2022-12-26T01:57:26;101367.94;;;8.87;100.00
75933;BME280;64803;52.356;5.310;2022-12-26T01:59:54;101340.69;;;8.74;100.00
75933;BME280;64803;52.356;5.310;2022-12-26T02:02:22;101361.41;;;8.89;100.00
75933;BME280;64803;52.356;5.310;2022-12-26T02:04:50;101360.25;;;8.92;100.00
75933;BME280;64803;52.356;5.310;2022-12-26T02:07:38;101348.16;;;8.88;100.00
75933;BME280;64803;52.356;5.310;2022-12-26T02:10:08;101347.78;;;8.83;100.00
75933;BME280;64803;52.356;5.310;2022-12-26T02:12:36;101312.25;;;8.55;100.00
75933;BME280;64803;52.356;5.310;2022-12-26T02:15:04;101348.28;;;8.78;100.00
75933;BME280;64803;52.356;5.310;2022-12-26T02:17:30;101288.47;;;8.52;100.00
75933;BME280;64803;52.356;5.310;2022-12-26T02:25:40;101349.19;;;8.87;100.00
75933;BME280;64803;52.356;5.310;2022-12-26T02:31:33;101329.09;;;8.91;100.00
75933;BME280;64803;52.356;5.310;2022-12-26T02:34:24;101333.81;;;8.89;100.00
75933;BME280;64803;52.356;5.310;2022-12-26T02:54:11;101312.41;;;8.54;100.00
75933;BME280;64803;52.356;5.310;2022-12-26T02:57:04;101317.44;;;8.57;100.00
75933;BME280;64803;52.356;5.310;2022-12-26T03:02:56;101317.13;;;8.60;100.00
75933;BME280;64803;52.356;5.310;2022-12-26T03:06:06;101318.84;;;8.61;100.00
75933;BME280;64803;52.356;5.310;2022-12-26T03:09:05;101318.91;;;8.51;100.00
75933;BME280;64803;52.356;5.310;2022-12-26T03:11:55;101324.47;;;8.58;100.00
75933;BME280;64803;52.356;5.310;2022-12-26T03:14:50;101302.63;;;8.45;100.00
75933;BME280;64803;52.356;5.310;2022-12-26T03:17:32;101324.34;;;8.42;100.00
75933;BME280;64803;52.356;5.310;2022-12-26T03:20:05;101320.66;;;8.43;100.00
75933;BME280;64803;52.356;5.310;2022-12-26T03:25:08;101323.84;;;8.29;100.00
75933;BME280;64803;52.356;5.310;2022-12-26T03:27:53;101315.44;;;8.24;100.00
75933;BME280;64803;52.356;5.310;2022-12-26T03:30:19;101325.09;;;8.34;100.00
75933;BME280;64803;52.356;5.310;2022-12-26T03:33:04;101336.72;;;8.43;100.00
75933;BME280;64803;52.356;5.310;2022-12-26T03:35:32;101341.47;;;8.49;100.00
75933;BME280;64803;52.356;5.310;2022-12-26T03:38:04;101333.19;;;8.60;100.00
75933;BME280;64803;52.356;5.310;2022-12-26T03:40:43;101294.81;;;8.34;100.00
75933;BME280;64803;52.356;5.310;2022-12-26T03:49:54;101332.66;;;8.56;100.00
75933;BME280;64803;52.356;5.310;2022-12-26T03:52:54;101335.97;;;8.68;100.00
75933;BME280;64803;52.356;5.310;2022-12-26T03:55:51;101310.25;;;8.57;100.00
75933;BME280;64803;52.356;5.310;2022-12-26T03:58:52;101326.47;;;8.56;100.00
75933;BME280;64803;52.356;5.310;2022-12-26T04:01:41;101320.50;;;8.62;100.00
75933;BME280;64803;52.356;5.310;2022-12-26T04:04:29;101317.44;;;8.57;100.00
75933;BME280;64803;52.356;5.310;2022-12-26T04:07:23;101326.22;;;8.49;100.00
75933;BME280;64803;52.356;5.310;2022-12-26T04:10:13;101318.84;;;8.43;100.00
75933;BME280;64803;52.356;5.310;2022-12-26T04:13:00;101339.47;;;8.51;100.00
75933;BME280;64803;52.356;5.310;2022-12-26T04:15:59;101326.22;;;8.49;100.00
75933;BME280;64803;52.356;5.310;2022-12-26T04:19:09;101270.81;;;8.24;100.00
75933;BME280;64803;52.356;5.310;2022-12-26T04:22:13;101328.47;;;8.54;100.00
75933;BME280;64803;52.356;5.310;2022-12-26T04:25:12;101318.03;;;8.51;100.00
75933;BME280;64803;52.356;5.310;2022-12-26T04:27:59;101327.78;;;8.52;100.00
75933;BME280;64803;52.356;5.310;2022-12-26T04:30:51;101322.78;;;8.57;100.00
75933;BME280;64803;52.356;5.310;2022-12-26T04:33:52;101318.66;;;8.45;100.00
75933;BME280;64803;52.356;5.310;2022-12-26T04:36:42;101280.25;;;8.19;100.00
75933;BME280;64803;52.356;5.310;2022-12-26T04:39:32;101328.63;;;8.52;100.00
75933;BME280;64803;52.356;5.310;2022-12-26T04:42:18;101326.22;;;8.49;100.00
75933;BME280;64803;52.356;5.310;2022-12-26T04:45:06;101329.75;;;8.50;100.00
75933;BME280;64803;52.356;5.310;2022-12-26T04:47:33;101333.44;;;8.49;100.00
75933;BME280;64803;52.356;5.310;2022-12-26T04:50:04;101320.66;;;8.43;100.00
75933;BME280;64803;52.356;5.310;2022-12-26T04:52:41;101330.38;;;8.44;100.00
75933;BME280;64803;52.356;5.310;2022-12-26T04:55:30;101323.34;;;8.43;100.00
75933;BME280;64803;52.356;5.310;2022-12-26T04:57:57;101331.03;;;8.46;100.00
75933;BME280;64803;52.356;5.310;2022-12-26T05:00:26;101310.47;;;8.46;100.00
75933;BME280;64803;52.356;5.310;2022-12-26T05:02:53;101312.63;;;8.43;100.00
75933;BME280;64803;52.356;5.310;2022-12-26T05:05:41;101312.69;;;8.51;100.00
75933;BME280;64803;52.356;5.310;2022-12-26T05:08:37;101319.75;;;8.52;100.00
75933;BME280;64803;52.356;5.310;2022-12-26T05:11:23;101308.88;;;8.36;100.00
75933;BME280;64803;52.356;5.310;2022-12-26T05:13:54;101304.91;;;8.40;100.00
75933;BME280;64803;52.356;5.310;2022-12-26T05:16:21;101312.03;;;8.31;100.00
75933;BME280;64803;52.356;5.310;2022-12-26T05:19:09;101312.94;;;8.40;100.00
75933;BME280;64803;52.356;5.310;2022-12-26T05:21:54;101305.34;;;8.35;100.00
75933;BME280;64803;52.356;5.310;2022-12-26T05:24:40;101308.34;;;8.32;100.00
75933;BME280;64803;52.356;5.310;2022-12-26T05:27:34;101315.84;;;8.29;100.00
75933;BME280;64803;52.356;5.310;2022-12-26T05:30:19;101322.19;;;8.28;100.00
75933;BME280;64803;52.356;5.310;2022-12-26T05:32:45;101316.00;;;8.18;100.00
75933;BME280;64803;52.356;5.310;2022-12-26T05:35:31;101321.34;;;8.18;100.00
75933;BME280;64803;52.356;5.310;2022-12-26T05:37:57;101316.94;;;8.09;100.00
75933;BME280;64803;52.356;5.310;2022-12-26T05:40:23;101323.94;;;8.10;100.00
75933;BME280;64803;52.356;5.310;2022-12-26T05:42:49;101318.59;;;8.10;100.00
75933;BME280;64803;52.356;5.310;2022-12-26T05:45:15;101321.97;;;8.12;100.00
75933;BME280;64803;52.356;5.310;2022-12-26T05:47:41;101318.28;;;8.13;100.00
75933;BME280;64803;52.356;5.310;2022-12-26T05:50:07;101309.88;;;8.08;100.00
75933;BME280;64803;52.356;5.310;2022-12-26T05:52:33;101311.03;;;8.05;100.00
75933;BME280;64803;52.356;5.310;2022-12-26T05:54:59;101316.94;;;8.09;100.00
75933;BME280;64803;52.356;5.310;2022-12-26T05:57:26;101318.44;;;8.11;100.00
75933;BME280;64803;52.356;5.310;2022-12-26T05:59:52;101313.88;;;8.04;100.00
75933;BME280;64803;52.356;5.310;2022-12-26T06:02:18;101311.19;;;8.04;100.00
75933;BME280;64803;52.356;5.310;2022-12-26T06:04:44;101318.69;;;8.00;100.00
75933;BME280;64803;52.356;5.310;2022-12-26T06:07:10;101314.16;;;8.00;100.00
75933;BME280;64803;52.356;5.310;2022-12-26T06:09:36;101316.81;;;8.00;100.00
75933;BME280;64803;52.356;5.310;2022-12-26T06:12:02;101314.16;;;8.00;100.00
75933;BME280;64803;52.356;5.310;2022-12-26T06:14:28;101316.25;;;8.07;100.00
75933;BME280;64803;52.356;5.310;2022-12-26T06:16:54;101274.09;;;7.73;100.00
75933;BME280;64803;52.356;5.310;2022-12-26T06:19:20;101319.16;;;8.13;100.00
75933;BME280;64803;52.356;5.310;2022-12-26T06:21:46;101307.00;;;8.19;100.00
75933;BME280;64803;52.356;5.310;2022-12-26T06:24:12;101307.91;;;8.10;100.00
75933;BME280;64803;52.356;5.310;2022-12-26T06:26:39;101307.38;;;8.06;100.00
75933;BME280;64803;52.356;5.310;2022-12-26T06:29:05;101301.78;;;7.99;100.00
75933;BME280;64803;52.356;5.310;2022-12-26T06:31:31;101297.84;;;8.04;100.00
75933;BME280;64803;52.356;5.310;2022-12-26T06:33:57;101297.56;;;7.97;100.00
75933;BME280;64803;52.356;5.310;2022-12-26T06:36:25;101296.97;;;8.03;100.00
75933;BME280;64803;52.356;5.310;2022-12-26T06:38:53;101300.63;;;8.02;100.00
75933;BME280;64803;52.356;5.310;2022-12-26T06:41:21;101309.34;;;8.04;100.00
75933;BME280;64803;52.356;5.310;2022-12-26T06:43:48;101316.63;;;8.12;100.00
75933;BME280;64803;52.356;5.310;2022-12-26T06:46:16;101313.34;;;8.18;100.00
75933;BME280;64803;52.356;5.310;2022-12-26T06:48:43;101316.41;;;8.23;100.00
75933;BME280;64803;52.356;5.310;2022-12-26T06:51:17;101310.16;;;8.32;100.00
75933;BME280;64803;52.356;5.310;2022-12-26T06:53:44;101309.50;;;8.30;100.00
75933;BME280;64803;52.356;5.310;2022-12-26T06:56:13;101302.00;;;8.33;100.00
75933;BME280;64803;52.356;5.310;2022-12-26T06:58:40;101266.72;;;8.02;100.00
75933;BME280;64803;52.356;5.310;2022-12-26T07:01:11;101299.72;;;8.38;100.00
75933;BME280;64803;52.356;5.310;2022-12-26T07:03:38;101300.63;;;8.47;100.00
75933;BME280;64803;52.356;5.310;2022-12-26T07:06:28;101300.63;;;8.47;100.00
75933;BME280;64803;52.356;5.310;2022-12-26T07:08:58;101291.91;;;8.45;100.00
75933;BME280;64803;52.356;5.310;2022-12-26T07:11:30;101296.03;;;8.57;100.00
75933;BME280;64803;52.356;5.310;2022-12-26T07:13:57;101216.97;;;8.10;100.00
75933;BME280;64803;52.356;5.310;2022-12-26T07:16:24;101269.59;;;8.54;100.00
75933;BME280;64803;52.356;5.310;2022-12-26T07:18:54;101286.34;;;8.56;100.00
75933;BME280;64803;52.356;5.310;2022-12-26T07:21:21;101267.66;;;8.46;100.00
75933;BME280;64803;52.356;5.310;2022-12-26T07:23:48;101287.63;;;8.52;100.00
75933;BME280;64803;52.356;5.310;2022-12-26T07:26:14;101286.25;;;8.48;100.00
75933;BME280;64803;52.356;5.310;2022-12-26T07:28:40;101266.38;;;8.33;100.00
75933;BME280;64803;52.356;5.310;2022-12-26T07:31:06;101287.63;;;8.52;100.00
75933;BME280;64803;52.356;5.310;2022-12-26T07:33:32;101286.47;;;8.54;100.00
75933;BME280;64803;52.356;5.310;2022-12-26T07:36:01;101288.22;;;8.46;100.00
75933;BME280;64803;52.356;5.310;2022-12-26T07:38:27;101286.94;;;8.50;100.00
75933;BME280;64803;52.356;5.310;2022-12-26T07:40:56;101280.56;;;8.51;100.00
75933;BME280;64803;52.356;5.310;2022-12-26T07:43:23;101289.53;;;8.59;100.00
75933;BME280;64803;52.356;5.310;2022-12-26T07:45:49;101289.38;;;8.61;100.00
75933;BME280;64803;52.356;5.310;2022-12-26T07:48:16;101298.63;;;8.66;100.00
75933;BME280;64803;52.356;5.310;2022-12-26T07:50:42;101300.69;;;8.72;100.00
75933;BME280;64803;52.356;5.310;2022-12-26T07:53:14;101284.59;;;8.72;100.00
75933;BME280;64803;52.356;5.310;2022-12-26T07:55:40;101289.88;;;8.82;100.00
75933;BME280;64803;52.356;5.310;2022-12-26T07:58:06;101277.81;;;8.78;100.00
75933;BME280;64803;52.356;5.310;2022-12-26T08:00:32;101285.19;;;8.84;100.00
75933;BME280;64803;52.356;5.310;2022-12-26T08:02:58;101291.56;;;8.83;100.00
75933;BME280;64803;52.356;5.310;2022-12-26T08:05:24;101289.78;;;8.91;100.00
75933;BME280;64803;52.356;5.310;2022-12-26T08:07:50;101292.63;;;8.90;100.00
75933;BME280;64803;52.356;5.310;2022-12-26T08:10:16;101296.50;;;8.95;100.00
75933;BME280;64803;52.356;5.310;2022-12-26T08:12:42;101290.06;;;9.06;99.37
75933;BME280;64803;52.356;5.310;2022-12-26T08:15:11;101286.63;;;9.22;98.26
75933;BME280;64803;52.356;5.310;2022-12-26T08:17:37;101304.19;;;9.16;98.64
75933;BME280;64803;52.356;5.310;2022-12-26T08:20:03;101299.16;;;9.13;98.78
75933;BME280;64803;52.356;5.310;2022-12-26T08:22:29;101316.56;;;9.17;98.18
75933;BME280;64803;52.356;5.310;2022-12-26T08:24:55;101301.13;;;9.11;98.80
75933;BME280;64803;52.356;5.310;2022-12-26T08:27:21;101322.94;;;9.16;99.84
75933;BME280;64803;52.356;5.310;2022-12-26T08:29:47;101322.91;;;9.08;100.00
75933;BME280;64803;52.356;5.310;2022-12-26T08:32:14;101337.59;;;9.04;100.00
75933;BME280;64803;52.356;5.310;2022-12-26T08:34:40;101317.38;;;9.09;100.00
75933;BME280;64803;52.356;5.310;2022-12-26T08:37:06;101334.91;;;9.04;100.00
75933;BME280;64803;52.356;5.310;2022-12-26T08:39:32;101356.72;;;9.09;100.00
75933;BME280;64803;52.356;5.310;2022-12-26T08:41:58;101358.84;;;9.05;100.00
75933;BME280;64803;52.356;5.310;2022-12-26T08:44:24;101355.31;;;9.05;100.00
75933;BME280;64803;52.356;5.310;2022-12-26T08:46:49;101372.09;;;9.07;100.00
75933;BME280;64803;52.356;5.310;2022-12-26T08:49:15;101377.78;;;9.04;100.00
75933;BME280;64803;52.356;5.310;2022-12-26T08:51:41;101384.34;;;9.09;100.00
75933;BME280;64803;52.356;5.310;2022-12-26T08:54:07;101390.53;;;9.10;100.00
75933;BME280;64803;52.356;5.310;2022-12-26T08:56:33;101386.28;;;8.99;100.00
75933;BME280;64803;52.356;5.310;2022-12-26T08:58:59;101401.34;;;9.00;100.00
75933;BME280;64803;52.356;5.310;2022-12-26T09:01:27;101409.06;;;9.03;100.00
75933;BME280;64803;52.356;5.310;2022-12-26T09:03:56;101407.09;;;9.05;100.00
75933;BME280;64803;52.356;5.310;2022-12-26T09:06:23;101414.59;;;9.02;100.00
75933;BME280;64803;52.356;5.310;2022-12-26T09:08:49;101410.44;;;9.07;100.00
75933;BME280;64803;52.356;5.310;2022-12-26T09:11:19;101411.59;;;9.05;100.00
75933;BME280;64803;52.356;5.310;2022-12-26T09:13:45;101415.44;;;9.02;100.00
75933;BME280;64803;52.356;5.310;2022-12-26T09:16:16;101438.69;;;9.02;100.00
75933;BME280;64803;52.356;5.310;2022-12-26T09:18:44;101434.34;;;9.01;100.00
75933;BME280;64803;52.356;5.310;2022-12-26T09:21:12;101453.38;;;8.98;100.00
75933;BME280;64803;52.356;5.310;2022-12-26T09:23:40;101491.88;;;8.97;100.00
75933;BME280;64803;52.356;5.310;2022-12-26T09:26:08;101514.13;;;8.53;94.87
75933;BME280;64803;52.356;5.310;2022-12-26T09:28:36;101527.78;;;8.23;94.67
75933;BME280;64803;52.356;5.310;2022-12-26T09:31:07;101537.38;;;8.06;93.01
75933;BME280;64803;52.356;5.310;2022-12-26T09:33:35;101550.66;;;7.88;91.96
75933;BME280;64803;52.356;5.310;2022-12-26T09:36:10;101554.47;;;7.76;91.96
75933;BME280;64803;52.356;5.310;2022-12-26T09:38:36;101570.41;;;7.68;91.03
75933;BME280;64803;52.356;5.310;2022-12-26T09:44:04;101597.66;;;7.43;90.64
75933;BME280;64803;52.356;5.310;2022-12-26T09:49:31;101595.97;;;7.33;89.91
75933;BME280;64803;52.356;5.310;2022-12-26T09:52:00;101602.56;;;7.29;88.55
75933;BME280;64803;52.356;5.310;2022-12-26T09:54:36;101604.69;;;7.25;88.61
75933;BME280;64803;52.356;5.310;2022-12-26T09:57:08;101601.59;;;7.30;89.67
75933;BME280;64803;52.356;5.310;2022-12-26T09:59:52;101579.78;;;7.15;89.31
75933;BME280;64803;52.356;5.310;2022-12-26T10:02:21;101618.06;;;7.35;89.45
75933;BME280;64803;52.356;5.310;2022-12-26T10:04:49;101622.28;;;7.37;88.83
75933;BME280;64803;52.356;5.310;2022-12-26T10:10:01;101621.88;;;7.51;90.14
75933;BME280;64803;52.356;5.310;2022-12-26T10:12:45;101632.28;;;7.54;87.75
75933;BME280;64803;52.356;5.310;2022-12-26T10:21:00;101622.00;;;7.40;87.49
75933;BME280;64803;52.356;5.310;2022-12-26T10:23:35;101644.66;;;7.46;87.86
75933;BME280;64803;52.356;5.310;2022-12-26T10:26:08;101638.19;;;7.48;87.81
75933;BME280;64803;52.356;5.310;2022-12-26T10:31:27;101590.63;;;7.23;85.31
75933;BME280;64803;52.356;5.310;2022-12-26T10:39:50;101661.28;;;7.68;86.77
75933;BME280;64803;52.356;5.310;2022-12-26T10:42:37;101663.81;;;7.70;88.08
75933;BME280;64803;52.356;5.310;2022-12-26T10:45:18;101661.81;;;7.62;87.23
75933;BME280;64803;52.356;5.310;2022-12-26T10:47:47;101625.50;;;7.22;89.39
75933;BME280;64803;52.356;5.310;2022-12-26T10:50:17;101684.47;;;7.58;89.27
75933;BME280;64803;52.356;5.310;2022-12-26T10:52:44;101684.06;;;7.63;89.79
75933;BME280;64803;52.356;5.310;2022-12-26T10:55:15;101693.91;;;7.62;89.13
75933;BME280;64803;52.356;5.310;2022-12-26T10:57:43;101704.75;;;7.61;88.24
75933;BME280;64803;52.356;5.310;2022-12-26T11:00:29;101699.53;;;7.69;88.90
75933;BME280;64803;52.356;5.310;2022-12-26T11:03:11;101701.53;;;7.86;88.88
75933;BME280;64803;52.356;5.310;2022-12-26T11:05:40;101700.13;;;7.91;88.37
75933;BME280;64803;52.356;5.310;2022-12-26T11:08:26;101684.06;;;7.91;86.92
75933;BME280;64803;52.356;5.310;2022-12-26T11:11:06;101664.66;;;7.89;86.07
75933;BME280;64803;52.356;5.310;2022-12-26T11:13:38;101716.19;;;8.01;87.43
75933;BME280;64803;52.356;5.310;2022-12-26T11:16:06;101691.13;;;7.73;86.15
75933;BME280;64803;52.356;5.310;2022-12-26T11:18:37;101715.06;;;7.84;86.96
75933;BME280;64803;52.356;5.310;2022-12-26T11:21:26;101729.97;;;7.77;86.33
75933;BME280;64803;52.356;5.310;2022-12-26T11:24:15;101734.84;;;7.72;87.55
75933;BME280;64803;52.356;5.310;2022-12-26T11:26:41;101729.97;;;7.77;88.80
75933;BME280;64803;52.356;5.310;2022-12-26T11:29:15;101737.28;;;7.75;88.32
75933;BME280;64803;52.356;5.310;2022-12-26T11:34:25;101753.47;;;7.74;87.01
75933;BME280;64803;52.356;5.310;2022-12-26T11:36:53;101761.16;;;7.67;87.86
75933;BME280;64803;52.356;5.310;2022-12-26T11:39:22;101758.06;;;7.62;87.67
75933;BME280;64803;52.356;5.310;2022-12-26T11:41:50;101770.47;;;7.63;88.54
75933;BME280;64803;52.356;5.310;2022-12-26T11:44:21;101767.88;;;7.52;87.20
75933;BME280;64803;52.356;5.310;2022-12-26T11:46:53;101771.78;;;7.48;87.86
75933;BME280;64803;52.356;5.310;2022-12-26T11:49:40;101782.47;;;7.48;87.92
75933;BME280;64803;52.356;5.310;2022-12-26T11:58:22;101778.91;;;7.68;86.34
75933;BME280;64803;52.356;5.310;2022-12-26T12:03:34;101776.31;;;7.48;85.42
75933;BME280;64803;52.356;5.310;2022-12-26T12:13:57;101786.59;;;7.22;87.47
75933;BME280;64803;52.356;5.310;2022-12-26T12:16:31;101781.53;;;7.19;87.62
75933;BME280;64803;52.356;5.310;2022-12-26T12:19:03;101790.53;;;7.18;87.42
75933;BME280;64803;52.356;5.310;2022-12-26T12:22:14;101784.63;;;7.24;85.60
75933;BME280;64803;52.356;5.310;2022-12-26T12:33:48;101792.94;;;7.51;83.16
75933;BME280;64803;52.356;5.310;2022-12-26T12:36:34;101787.00;;;7.48;82.48
75933;BME280;64803;52.356;5.310;2022-12-26T12:44:29;101797.72;;;7.27;82.08
75933;BME280;64803;52.356;5.310;2022-12-26T12:47:06;101810.69;;;7.32;81.53
75933;BME280;64803;52.356;5.310;2022-12-26T12:55:38;101838.25;;;7.62;78.27
75933;BME280;64803;52.356;5.310;2022-12-26T12:58:30;101819.66;;;7.51;78.69
75933;BME280;64803;52.356;5.310;2022-12-26T13:01:02;101833.13;;;7.50;76.47
75933;BME280;64803;52.356;5.310;2022-12-26T13:06:12;101827.78;;;7.50;75.27
75933;BME280;64803;52.356;5.310;2022-12-26T13:08:47;101825.56;;;7.55;74.87
75933;BME280;64803;52.356;5.310;2022-12-26T13:11:19;101836.50;;;7.52;75.67
75933;BME280;64803;52.356;5.310;2022-12-26T13:14:09;101842.66;;;7.43;71.29
75933;BME280;64803;52.356;5.310;2022-12-26T13:16:39;101846.72;;;7.37;72.79
75933;BME280;64803;52.356;5.310;2022-12-26T13:19:18;101847.38;;;7.30;71.59
75933;BME280;64803;52.356;5.310;2022-12-26T13:21:47;101865.31;;;7.18;71.00
75933;BME280;64803;52.356;5.310;2022-12-26T13:24:37;101847.66;;;7.06;70.24
75933;BME280;64803;52.356;5.310;2022-12-26T13:27:13;101847.47;;;6.98;72.24
75933;BME280;64803;52.356;5.310;2022-12-26T13:29:43;101845.06;;;6.95;73.28
75933;BME280;64803;52.356;5.310;2022-12-26T13:32:30;101848.50;;;6.86;70.96
75933;BME280;64803;52.356;5.310;2022-12-26T13:34:59;101860.38;;;6.93;71.61
75933;BME280;64803;52.356;5.310;2022-12-26T13:39:58;101810.75;;;6.70;72.04
75933;BME280;64803;52.356;5.310;2022-12-26T13:50:56;101878.47;;;7.10;72.14
75933;BME280;64803;52.356;5.310;2022-12-26T13:53:29;101863.56;;;7.08;71.78
75933;BME280;64803;52.356;5.310;2022-12-26T13:55:58;101879.13;;;7.03;72.12
75933;BME280;64803;52.356;5.310;2022-12-26T14:04:47;101893.78;;;7.08;72.20
75933;BME280;64803;52.356;5.310;2022-12-26T14:13:02;101900.03;;;6.98;71.58
75933;BME280;64803;52.356;5.310;2022-12-26T14:15:42;101894.09;;;6.94;73.18
75933;BME280;64803;52.356;5.310;2022-12-26T14:18:32;101902.81;;;6.96;72.81
75933;BME280;64803;52.356;5.310;2022-12-26T14:26:29;101915.25;;;6.86;70.79
75933;BME280;64803;52.356;5.310;2022-12-26T14:35:00;101932.91;;;6.77;73.38
75933;BME280;64803;52.356;5.310;2022-12-26T14:40:34;101939.31;;;6.75;74.64
75933;BME280;64803;52.356;5.310;2022-12-26T14:43:07;101944.06;;;6.71;73.66
75933;BME280;64803;52.356;5.310;2022-12-26T14:45:49;101942.50;;;6.69;74.75
75933;BME280;64803;52.356;5.310;2022-12-26T15:00:55;101960.66;;;6.32;75.39
75933;BME280;64803;52.356;5.310;2022-12-26T15:03:42;101957.41;;;6.18;77.31
75933;BME280;64803;52.356;5.310;2022-12-26T15:31:23;101984.56;;;6.12;79.65
75933;BME280;64803;52.356;5.310;2022-12-26T15:37:05;102001.28;;;6.03;80.45
75933;BME280;64803;52.356;5.310;2022-12-26T15:45:24;102000.06;;;5.85;81.27
75933;BME280;64803;52.356;5.310;2022-12-26T15:48:17;102013.38;;;5.85;81.13
75933;BME280;64803;52.356;5.310;2022-12-26T15:50:59;102013.09;;;5.77;82.20
75933;BME280;64803;52.356;5.310;2022-12-26T15:53:54;102021.56;;;5.70;82.07
75933;BME280;64803;52.356;5.310;2022-12-26T15:56:32;102015.88;;;5.64;82.44
75933;BME280;64803;52.356;5.310;2022-12-26T16:01:54;102033.66;;;5.52;82.55
75933;BME280;64803;52.356;5.310;2022-12-26T16:04:34;102028.31;;;5.52;82.17
75933;BME280;64803;52.356;5.310;2022-12-26T16:09:52;102033.97;;;5.48;82.77
75933;BME280;64803;52.356;5.310;2022-12-26T16:12:31;102035.28;;;5.42;82.89
75933;BME280;64803;52.356;5.310;2022-12-26T16:17:34;102039.91;;;5.40;83.10
75933;BME280;64803;52.356;5.310;2022-12-26T16:23:03;102040.59;;;5.31;82.55
75933;BME280;64803;52.356;5.310;2022-12-26T16:25:29;102047.59;;;5.32;82.74
75933;BME280;64803;52.356;5.310;2022-12-26T16:27:58;102048.53;;;5.20;82.83
75933;BME280;64803;52.356;5.310;2022-12-26T16:30:27;102031.38;;;5.01;83.07
75933;BME280;64803;52.356;5.310;2022-12-26T16:32:55;102051.84;;;5.00;84.00
75933;BME280;64803;52.356;5.310;2022-12-26T16:35:27;102038.22;;;4.92;83.66
75933;BME280;64803;52.356;5.310;2022-12-26T16:37:57;102043.78;;;4.89;84.41
75933;BME280;64803;52.356;5.310;2022-12-26T16:40:28;102044.44;;;4.80;85.36
75933;BME280;64803;52.356;5.310;2022-12-26T16:43:05;102053.41;;;4.79;85.36
75933;BME280;64803;52.356;5.310;2022-12-26T16:45:35;102059.81;;;4.64;86.10